Kirkburton, United Kingdom
Current Conditions -  °F | °C
As of 7:50 AM on Saturday 25 Oct 2014 (Local Time) from EGNM Reporting Station
Few Clouds Few Clouds  
Wind Chill:   Ceiling: Unl
Heat Index:   Visibility: 6mi
Dew Point:   Wind: 7mph
Humidity: 93%   Direction: 230°SW
Pressure: 29.88"   Gusts: NA
Location:  53.61°N, 1.7°W
Report Text: EGNM 250650Z 23006KT 200V270 9999 FEW025 07/06 Q1012
Loading
Personal Weather Stations






























Interactive Weather Map
Tropical Storm Tracking
New forecast layout! Learn more

10-Day Weather Forecast

Advertisements
Track Severe Weather on mobile